sensor_id;sensor_type;location;lat;lon;timestamp;temperature;humidity
56861;DHT22;42744;51.094;3.490;2024-03-08T00:02:23;4.20;99.90
56861;DHT22;42744;51.094;3.490;2024-03-08T00:04:50;4.20;99.90
56861;DHT22;42744;51.094;3.490;2024-03-08T00:07:16;4.10;99.90
56861;DHT22;42744;51.094;3.490;2024-03-08T00:09:41;4.10;99.90
56861;DHT22;42744;51.094;3.490;2024-03-08T00:12:08;4.10;99.90
56861;DHT22;42744;51.094;3.490;2024-03-08T00:14:35;4.10;99.90
56861;DHT22;42744;51.094;3.490;2024-03-08T00:17:03;4.10;99.90
56861;DHT22;42744;51.094;3.490;2024-03-08T00:19:29;4.20;99.90
56861;DHT22;42744;51.094;3.490;2024-03-08T00:21:56;4.20;99.90
56861;DHT22;42744;51.094;3.490;2024-03-08T00:24:22;4.20;99.90
56861;DHT22;42744;51.094;3.490;2024-03-08T00:26:51;4.20;99.90
56861;DHT22;42744;51.094;3.490;2024-03-08T00:29:17;4.10;99.90
56861;DHT22;42744;51.094;3.490;2024-03-08T00:31:43;4.20;99.90
56861;DHT22;42744;51.094;3.490;2024-03-08T00:34:09;4.20;99.90
56861;DHT22;42744;51.094;3.490;2024-03-08T00:36:37;4.20;99.90
56861;DHT22;42744;51.094;3.490;2024-03-08T00:39:03;4.20;99.90
56861;DHT22;42744;51.094;3.490;2024-03-08T00:41:32;4.10;99.90
56861;DHT22;42744;51.094;3.490;2024-03-08T00:43:58;4.10;99.90
56861;DHT22;42744;51.094;3.490;2024-03-08T00:46:24;4.10;99.90
56861;DHT22;42744;51.094;3.490;2024-03-08T00:48:51;4.10;99.90
56861;DHT22;42744;51.094;3.490;2024-03-08T00:51:17;4.10;99.90
56861;DHT22;42744;51.094;3.490;2024-03-08T00:53:42;4.10;99.90
56861;DHT22;42744;51.094;3.490;2024-03-08T00:56:09;4.10;99.90
56861;DHT22;42744;51.094;3.490;2024-03-08T00:58:42;4.00;99.90
56861;DHT22;42744;51.094;3.490;2024-03-08T01:01:13;4.00;99.90
56861;DHT22;42744;51.094;3.490;2024-03-08T01:03:43;4.00;99.90
56861;DHT22;42744;51.094;3.490;2024-03-08T01:06:09;3.90;99.90
56861;DHT22;42744;51.094;3.490;2024-03-08T01:08:35;3.90;99.90
56861;DHT22;42744;51.094;3.490;2024-03-08T01:11:04;3.90;99.90
56861;DHT22;42744;51.094;3.490;2024-03-08T01:13:33;3.80;99.90
56861;DHT22;42744;51.094;3.490;2024-03-08T01:15:59;3.80;99.90
56861;DHT22;42744;51.094;3.490;2024-03-08T01:18:25;3.80;99.90
56861;DHT22;42744;51.094;3.490;2024-03-08T01:20:51;3.80;99.90
56861;DHT22;42744;51.094;3.490;2024-03-08T01:23:17;3.80;99.90
56861;DHT22;42744;51.094;3.490;2024-03-08T01:25:43;3.80;99.90
56861;DHT22;42744;51.094;3.490;2024-03-08T01:28:09;3.80;99.90
56861;DHT22;42744;51.094;3.490;2024-03-08T01:30:35;3.80;99.90
56861;DHT22;42744;51.094;3.490;2024-03-08T01:33:03;3.80;99.90
56861;DHT22;42744;51.094;3.490;2024-03-08T01:35:29;3.70;99.90
56861;DHT22;42744;51.094;3.490;2024-03-08T01:37:55;3.70;99.90
56861;DHT22;42744;51.094;3.490;2024-03-08T01:40:21;3.70;99.90
56861;DHT22;42744;51.094;3.490;2024-03-08T01:42:48;3.60;99.90
56861;DHT22;42744;51.094;3.490;2024-03-08T01:45:14;3.60;99.90
56861;DHT22;42744;51.094;3.490;2024-03-08T01:47:40;3.60;99.90
56861;DHT22;42744;51.094;3.490;2024-03-08T01:50:07;3.60;99.90
56861;DHT22;42744;51.094;3.490;2024-03-08T01:52:34;3.60;99.90
56861;DHT22;42744;51.094;3.490;2024-03-08T01:55:02;3.60;99.90
56861;DHT22;42744;51.094;3.490;2024-03-08T01:57:42;3.60;99.90
56861;DHT22;42744;51.094;3.490;2024-03-08T02:00:09;3.50;99.90
56861;DHT22;42744;51.094;3.490;2024-03-08T02:02:37;3.50;99.90
56861;DHT22;42744;51.094;3.490;2024-03-08T02:05:05;3.50;99.90
56861;DHT22;42744;51.094;3.490;2024-03-08T02:07:31;3.50;99.90
56861;DHT22;42744;51.094;3.490;2024-03-08T02:09:57;3.50;99.90
56861;DHT22;42744;51.094;3.490;2024-03-08T02:12:23;3.50;99.90
56861;DHT22;42744;51.094;3.490;2024-03-08T02:14:49;3.50;99.90
56861;DHT22;42744;51.094;3.490;2024-03-08T02:17:15;3.50;99.90
56861;DHT22;42744;51.094;3.490;2024-03-08T02:19:41;3.50;99.90
56861;DHT22;42744;51.094;3.490;2024-03-08T02:22:07;3.50;99.90
56861;DHT22;42744;51.094;3.490;2024-03-08T02:24:33;3.50;99.90
56861;DHT22;42744;51.094;3.490;2024-03-08T02:26:59;3.50;99.90
56861;DHT22;42744;51.094;3.490;2024-03-08T02:29:25;3.50;99.90
56861;DHT22;42744;51.094;3.490;2024-03-08T02:31:52;3.50;99.90
56861;DHT22;42744;51.094;3.490;2024-03-08T02:34:18;3.50;99.90
56861;DHT22;42744;51.094;3.490;2024-03-08T02:36:44;3.50;99.90
56861;DHT22;42744;51.094;3.490;2024-03-08T02:39:10;3.50;99.90
56861;DHT22;42744;51.094;3.490;2024-03-08T02:41:36;3.50;99.90
56861;DHT22;42744;51.094;3.490;2024-03-08T02:44:02;3.50;99.90
56861;DHT22;42744;51.094;3.490;2024-03-08T02:46:30;3.50;99.90
56861;DHT22;42744;51.094;3.490;2024-03-08T02:48:56;3.50;99.90
56861;DHT22;42744;51.094;3.490;2024-03-08T02:51:22;3.50;99.90
56861;DHT22;42744;51.094;3.490;2024-03-08T02:53:48;3.50;99.90
56861;DHT22;42744;51.094;3.490;2024-03-08T02:56:15;3.50;99.90
56861;DHT22;42744;51.094;3.490;2024-03-08T02:58:43;3.50;99.90
56861;DHT22;42744;51.094;3.490;2024-03-08T03:01:09;3.40;99.90
56861;DHT22;42744;51.094;3.490;2024-03-08T03:03:36;3.40;99.90
56861;DHT22;42744;51.094;3.490;2024-03-08T03:06:02;3.40;99.90
56861;DHT22;42744;51.094;3.490;2024-03-08T03:08:28;3.40;99.90
56861;DHT22;42744;51.094;3.490;2024-03-08T03:10:54;3.40;99.90
56861;DHT22;42744;51.094;3.490;2024-03-08T03:13:22;3.40;99.90
56861;DHT22;42744;51.094;3.490;2024-03-08T03:15:49;3.30;99.90
56861;DHT22;42744;51.094;3.490;2024-03-08T03:18:15;3.30;99.90
56861;DHT22;42744;51.094;3.490;2024-03-08T03:20:41;3.30;99.90
56861;DHT22;42744;51.094;3.490;2024-03-08T03:23:09;3.30;99.90
56861;DHT22;42744;51.094;3.490;2024-03-08T03:25:35;3.30;99.90
56861;DHT22;42744;51.094;3.490;2024-03-08T03:28:02;3.30;99.90
56861;DHT22;42744;51.094;3.490;2024-03-08T03:30:29;3.30;99.90
56861;DHT22;42744;51.094;3.490;2024-03-08T03:32:59;3.30;99.90
56861;DHT22;42744;51.094;3.490;2024-03-08T03:35:33;3.20;99.90
56861;DHT22;42744;51.094;3.490;2024-03-08T03:37:59;3.20;99.90
56861;DHT22;42744;51.094;3.490;2024-03-08T03:40:39;3.20;99.90
56861;DHT22;42744;51.094;3.490;2024-03-08T03:43:05;3.10;99.90
56861;DHT22;42744;51.094;3.490;2024-03-08T03:45:31;3.10;99.90
56861;DHT22;42744;51.094;3.490;2024-03-08T03:48:05;3.10;99.90
56861;DHT22;42744;51.094;3.490;2024-03-08T03:50:32;3.10;99.90
56861;DHT22;42744;51.094;3.490;2024-03-08T03:53:00;3.10;99.90
56861;DHT22;42744;51.094;3.490;2024-03-08T03:55:26;3.00;99.90
56861;DHT22;42744;51.094;3.490;2024-03-08T03:57:52;3.00;99.90
56861;DHT22;42744;51.094;3.490;2024-03-08T04:00:19;2.90;99.90
56861;DHT22;42744;51.094;3.490;2024-03-08T04:02:45;3.00;99.90
56861;DHT22;42744;51.094;3.490;2024-03-08T04:05:12;2.90;99.90
56861;DHT22;42744;51.094;3.490;2024-03-08T04:07:39;2.90;99.90
56861;DHT22;42744;51.094;3.490;2024-03-08T04:10:06;2.90;99.90
56861;DHT22;42744;51.094;3.490;2024-03-08T04:12:36;2.80;99.90
56861;DHT22;42744;51.094;3.490;2024-03-08T04:15:02;2.80;99.90
56861;DHT22;42744;51.094;3.490;2024-03-08T04:17:28;2.80;99.90
56861;DHT22;42744;51.094;3.490;2024-03-08T04:19:54;2.80;99.90
56861;DHT22;42744;51.094;3.490;2024-03-08T04:22:20;2.80;99.90
56861;DHT22;42744;51.094;3.490;2024-03-08T04:24:47;2.80;99.90
56861;DHT22;42744;51.094;3.490;2024-03-08T04:27:13;2.70;99.90
56861;DHT22;42744;51.094;3.490;2024-03-08T04:29:42;2.70;99.90
56861;DHT22;42744;51.094;3.490;2024-03-08T04:32:10;2.70;99.90
56861;DHT22;42744;51.094;3.490;2024-03-08T04:34:39;2.60;99.90
56861;DHT22;42744;51.094;3.490;2024-03-08T04:37:05;2.60;99.90
56861;DHT22;42744;51.094;3.490;2024-03-08T04:39:31;2.50;99.90
56861;DHT22;42744;51.094;3.490;2024-03-08T04:42:00;2.50;99.90
56861;DHT22;42744;51.094;3.490;2024-03-08T04:44:29;2.50;99.90
56861;DHT22;42744;51.094;3.490;2024-03-08T04:46:56;2.50;99.90
56861;DHT22;42744;51.094;3.490;2024-03-08T04:49:22;2.50;99.90
56861;DHT22;42744;51.094;3.490;2024-03-08T04:51:48;2.50;99.90
56861;DHT22;42744;51.094;3.490;2024-03-08T04:54:14;2.50;99.90
56861;DHT22;42744;51.094;3.490;2024-03-08T04:56:40;2.40;99.90
56861;DHT22;42744;51.094;3.490;2024-03-08T04:59:07;2.40;99.90
56861;DHT22;42744;51.094;3.490;2024-03-08T05:01:34;2.50;99.90
56861;DHT22;42744;51.094;3.490;2024-03-08T05:04:04;2.50;99.90
56861;DHT22;42744;51.094;3.490;2024-03-08T05:06:29;2.50;99.90
56861;DHT22;42744;51.094;3.490;2024-03-08T05:08:56;2.40;99.90
56861;DHT22;42744;51.094;3.490;2024-03-08T05:11:22;2.40;99.90
56861;DHT22;42744;51.094;3.490;2024-03-08T05:13:48;2.40;99.90
56861;DHT22;42744;51.094;3.490;2024-03-08T05:16:14;2.40;99.90
56861;DHT22;42744;51.094;3.490;2024-03-08T05:18:41;2.40;99.90
56861;DHT22;42744;51.094;3.490;2024-03-08T05:21:08;2.30;99.90
56861;DHT22;42744;51.094;3.490;2024-03-08T05:23:35;2.30;99.90
56861;DHT22;42744;51.094;3.490;2024-03-08T05:26:01;2.30;99.90
56861;DHT22;42744;51.094;3.490;2024-03-08T05:28:27;2.30;99.90
56861;DHT22;42744;51.094;3.490;2024-03-08T05:30:53;2.20;99.90
56861;DHT22;42744;51.094;3.490;2024-03-08T05:33:22;2.20;99.90
56861;DHT22;42744;51.094;3.490;2024-03-08T05:35:49;2.10;99.90
56861;DHT22;42744;51.094;3.490;2024-03-08T05:38:15;2.10;99.90
56861;DHT22;42744;51.094;3.490;2024-03-08T05:40:41;2.10;99.90
56861;DHT22;42744;51.094;3.490;2024-03-08T05:43:08;2.10;99.90
56861;DHT22;42744;51.094;3.490;2024-03-08T05:45:35;2.00;99.90
56861;DHT22;42744;51.094;3.490;2024-03-08T05:48:01;2.00;99.90
56861;DHT22;42744;51.094;3.490;2024-03-08T05:50:27;2.00;99.90
56861;DHT22;42744;51.094;3.490;2024-03-08T05:52:53;2.00;99.90
56861;DHT22;42744;51.094;3.490;2024-03-08T05:55:19;2.00;99.90
56861;DHT22;42744;51.094;3.490;2024-03-08T05:57:45;2.00;99.90
56861;DHT22;42744;51.094;3.490;2024-03-08T06:00:11;2.00;99.90
56861;DHT22;42744;51.094;3.490;2024-03-08T06:02:38;1.90;99.90
56861;DHT22;42744;51.094;3.490;2024-03-08T06:05:10;1.90;99.90
56861;DHT22;42744;51.094;3.490;2024-03-08T06:07:37;1.90;99.90
56861;DHT22;42744;51.094;3.490;2024-03-08T06:10:10;1.90;99.90
56861;DHT22;42744;51.094;3.490;2024-03-08T06:12:38;1.90;99.90
56861;DHT22;42744;51.094;3.490;2024-03-08T06:15:08;1.90;99.90
56861;DHT22;42744;51.094;3.490;2024-03-08T06:17:36;1.90;99.90
56861;DHT22;42744;51.094;3.490;2024-03-08T06:20:02;1.90;99.90
56861;DHT22;42744;51.094;3.490;2024-03-08T06:22:29;1.90;99.90
56861;DHT22;42744;51.094;3.490;2024-03-08T06:24:56;1.90;99.90
56861;DHT22;42744;51.094;3.490;2024-03-08T06:27:22;1.90;99.90
56861;DHT22;42744;51.094;3.490;2024-03-08T06:29:48;1.90;99.90
56861;DHT22;42744;51.094;3.490;2024-03-08T06:32:15;1.90;99.90
56861;DHT22;42744;51.094;3.490;2024-03-08T06:34:41;1.90;99.90
56861;DHT22;42744;51.094;3.490;2024-03-08T06:37:07;1.90;99.90
56861;DHT22;42744;51.094;3.490;2024-03-08T06:39:33;1.90;99.90
56861;DHT22;42744;51.094;3.490;2024-03-08T06:42:01;2.00;99.90
56861;DHT22;42744;51.094;3.490;2024-03-08T06:44:28;2.00;99.90
56861;DHT22;42744;51.094;3.490;2024-03-08T06:46:54;2.00;99.90
56861;DHT22;42744;51.094;3.490;2024-03-08T06:49:20;2.10;99.90
56861;DHT22;42744;51.094;3.490;2024-03-08T06:51:46;2.20;99.90
56861;DHT22;42744;51.094;3.490;2024-03-08T06:54:12;2.20;99.90
56861;DHT22;42744;51.094;3.490;2024-03-08T06:56:38;2.30;99.90
56861;DHT22;42744;51.094;3.490;2024-03-08T06:59:05;2.40;99.90
56861;DHT22;42744;51.094;3.490;2024-03-08T07:01:32;2.40;99.90
56861;DHT22;42744;51.094;3.490;2024-03-08T07:03:59;2.40;99.90
56861;DHT22;42744;51.094;3.490;2024-03-08T07:06:28;2.40;99.90
56861;DHT22;42744;51.094;3.490;2024-03-08T07:08:54;2.40;99.90
56861;DHT22;42744;51.094;3.490;2024-03-08T07:11:20;2.40;99.90
56861;DHT22;42744;51.094;3.490;2024-03-08T07:13:46;2.50;99.90
56861;DHT22;42744;51.094;3.490;2024-03-08T07:16:12;2.50;99.90
56861;DHT22;42744;51.094;3.490;2024-03-08T07:18:38;2.60;99.90
56861;DHT22;42744;51.094;3.490;2024-03-08T07:21:09;2.70;99.90
56861;DHT22;42744;51.094;3.490;2024-03-08T07:23:38;2.70;99.90
56861;DHT22;42744;51.094;3.490;2024-03-08T07:26:24;2.70;99.90
56861;DHT22;42744;51.094;3.490;2024-03-08T07:28:50;2.80;99.90
56861;DHT22;42744;51.094;3.490;2024-03-08T07:31:15;2.80;99.90
56861;DHT22;42744;51.094;3.490;2024-03-08T07:34:00;2.90;99.90
56861;DHT22;42744;51.094;3.490;2024-03-08T07:36:26;3.00;99.90
56861;DHT22;42744;51.094;3.490;2024-03-08T07:38:52;3.00;99.90
56861;DHT22;42744;51.094;3.490;2024-03-08T07:41:18;3.00;99.90
56861;DHT22;42744;51.094;3.490;2024-03-08T07:43:45;3.10;99.90
56861;DHT22;42744;51.094;3.490;2024-03-08T07:46:11;3.20;99.90
56861;DHT22;42744;51.094;3.490;2024-03-08T07:48:39;3.30;99.90
56861;DHT22;42744;51.094;3.490;2024-03-08T07:51:05;3.30;99.90
56861;DHT22;42744;51.094;3.490;2024-03-08T07:53:31;3.40;99.90
56861;DHT22;42744;51.094;3.490;2024-03-08T07:55:58;3.50;99.90
56861;DHT22;42744;51.094;3.490;2024-03-08T07:58:23;3.50;99.90
56861;DHT22;42744;51.094;3.490;2024-03-08T08:00:49;3.60;99.90
56861;DHT22;42744;51.094;3.490;2024-03-08T08:03:16;3.70;99.90
56861;DHT22;42744;51.094;3.490;2024-03-08T08:05:43;3.70;99.90
56861;DHT22;42744;51.094;3.490;2024-03-08T08:08:09;3.80;99.90
56861;DHT22;42744;51.094;3.490;2024-03-08T08:10:37;3.90;99.90
56861;DHT22;42744;51.094;3.490;2024-03-08T08:13:03;3.90;99.90
56861;DHT22;42744;51.094;3.490;2024-03-08T08:15:32;4.00;99.90
56861;DHT22;42744;51.094;3.490;2024-03-08T08:18:00;4.00;99.90
56861;DHT22;42744;51.094;3.490;2024-03-08T08:20:26;4.10;99.90
56861;DHT22;42744;51.094;3.490;2024-03-08T08:22:54;4.20;99.90
56861;DHT22;42744;51.094;3.490;2024-03-08T08:25:21;4.20;99.90
56861;DHT22;42744;51.094;3.490;2024-03-08T08:27:50;4.20;99.90
56861;DHT22;42744;51.094;3.490;2024-03-08T08:30:16;4.30;99.90
56861;DHT22;42744;51.094;3.490;2024-03-08T08:32:42;4.40;99.90
56861;DHT22;42744;51.094;3.490;2024-03-08T08:35:08;4.50;99.90
56861;DHT22;42744;51.094;3.490;2024-03-08T08:37:35;4.50;99.90
56861;DHT22;42744;51.094;3.490;2024-03-08T08:40:04;4.50;99.90
56861;DHT22;42744;51.094;3.490;2024-03-08T08:42:36;4.60;99.90
56861;DHT22;42744;51.094;3.490;2024-03-08T08:45:02;4.70;99.90
56861;DHT22;42744;51.094;3.490;2024-03-08T08:47:28;4.70;99.90
56861;DHT22;42744;51.094;3.490;2024-03-08T08:49:54;4.80;99.90
56861;DHT22;42744;51.094;3.490;2024-03-08T08:52:20;4.90;99.90
56861;DHT22;42744;51.094;3.490;2024-03-08T08:54:46;5.00;99.90
56861;DHT22;42744;51.094;3.490;2024-03-08T08:57:12;5.10;99.90
56861;DHT22;42744;51.094;3.490;2024-03-08T08:59:39;5.20;99.90
56861;DHT22;42744;51.094;3.490;2024-03-08T09:02:06;5.30;99.90
56861;DHT22;42744;51.094;3.490;2024-03-08T09:04:34;5.50;99.90
56861;DHT22;42744;51.094;3.490;2024-03-08T09:07:01;5.60;99.90
56861;DHT22;42744;51.094;3.490;2024-03-08T09:09:27;5.80;99.90
56861;DHT22;42744;51.094;3.490;2024-03-08T09:11:55;5.90;99.90
56861;DHT22;42744;51.094;3.490;2024-03-08T09:14:21;6.00;99.90
56861;DHT22;42744;51.094;3.490;2024-03-08T09:16:47;6.10;99.90
56861;DHT22;42744;51.094;3.490;2024-03-08T09:19:13;6.20;99.90
56861;DHT22;42744;51.094;3.490;2024-03-08T09:21:40;6.40;99.90
56861;DHT22;42744;51.094;3.490;2024-03-08T09:24:07;6.60;99.90
56861;DHT22;42744;51.094;3.490;2024-03-08T09:26:33;6.80;99.90
56861;DHT22;42744;51.094;3.490;2024-03-08T09:28:59;6.90;99.90
56861;DHT22;42744;51.094;3.490;2024-03-08T09:31:25;7.10;99.90
56861;DHT22;42744;51.094;3.490;2024-03-08T09:33:52;7.30;99.90
56861;DHT22;42744;51.094;3.490;2024-03-08T09:36:18;7.50;99.90
56861;DHT22;42744;51.094;3.490;2024-03-08T09:38:45;7.70;99.90
56861;DHT22;42744;51.094;3.490;2024-03-08T09:41:11;7.80;99.90
56861;DHT22;42744;51.094;3.490;2024-03-08T09:43:38;7.90;99.90
56861;DHT22;42744;51.094;3.490;2024-03-08T09:46:05;8.00;99.90
56861;DHT22;42744;51.094;3.490;2024-03-08T09:48:32;8.20;99.90
56861;DHT22;42744;51.094;3.490;2024-03-08T09:50:58;8.40;99.90
56861;DHT22;42744;51.094;3.490;2024-03-08T09:53:25;8.60;99.90
56861;DHT22;42744;51.094;3.490;2024-03-08T09:55:51;8.70;99.90
56861;DHT22;42744;51.094;3.490;2024-03-08T09:58:17;8.70;99.90
56861;DHT22;42744;51.094;3.490;2024-03-08T10:01:03;8.90;99.90
56861;DHT22;42744;51.094;3.490;2024-03-08T10:03:33;9.00;99.90
56861;DHT22;42744;51.094;3.490;2024-03-08T10:05:59;9.10;99.90
56861;DHT22;42744;51.094;3.490;2024-03-08T10:08:29;9.30;99.90
56861;DHT22;42744;51.094;3.490;2024-03-08T10:10:56;9.60;99.90
56861;DHT22;42744;51.094;3.490;2024-03-08T10:13:26;9.70;99.90
56861;DHT22;42744;51.094;3.490;2024-03-08T10:15:56;9.80;99.90
56861;DHT22;42744;51.094;3.490;2024-03-08T10:18:22;10.10;99.90
56861;DHT22;42744;51.094;3.490;2024-03-08T10:21:05;10.20;99.90
56861;DHT22;42744;51.094;3.490;2024-03-08T10:23:33;10.30;99.90
56861;DHT22;42744;51.094;3.490;2024-03-08T10:26:13;10.30;99.90
56861;DHT22;42744;51.094;3.490;2024-03-08T10:28:51;10.20;99.90
56861;DHT22;42744;51.094;3.490;2024-03-08T10:31:19;10.60;99.90
56861;DHT22;42744;51.094;3.490;2024-03-08T10:33:48;10.70;99.90
56861;DHT22;42744;51.094;3.490;2024-03-08T10:36:17;10.80;99.90
56861;DHT22;42744;51.094;3.490;2024-03-08T10:38:45;11.00;99.90
56861;DHT22;42744;51.094;3.490;2024-03-08T10:41:15;11.40;99.90
56861;DHT22;42744;51.094;3.490;2024-03-08T10:46:36;11.80;99.90
56861;DHT22;42744;51.094;3.490;2024-03-08T10:49:10;11.60;99.90
56861;DHT22;42744;51.094;3.490;2024-03-08T10:51:40;11.70;99.90
56861;DHT22;42744;51.094;3.490;2024-03-08T10:54:09;11.80;99.90
56861;DHT22;42744;51.094;3.490;2024-03-08T10:56:36;12.00;99.90
56861;DHT22;42744;51.094;3.490;2024-03-08T10:59:02;12.20;99.90
56861;DHT22;42744;51.094;3.490;2024-03-08T11:01:30;12.40;99.90
56861;DHT22;42744;51.094;3.490;2024-03-08T11:03:56;12.50;99.90
56861;DHT22;42744;51.094;3.490;2024-03-08T11:09:30;12.90;99.90
56861;DHT22;42744;51.094;3.490;2024-03-08T11:14:45;13.30;99.90
56861;DHT22;42744;51.094;3.490;2024-03-08T11:17:15;13.10;99.90
56861;DHT22;42744;51.094;3.490;2024-03-08T11:19:52;13.10;99.90
56861;DHT22;42744;51.094;3.490;2024-03-08T11:22:32;13.00;99.90
56861;DHT22;42744;51.094;3.490;2024-03-08T11:25:08;13.20;99.90
56861;DHT22;42744;51.094;3.490;2024-03-08T11:27:38;13.20;99.90
56861;DHT22;42744;51.094;3.490;2024-03-08T11:30:06;13.30;99.90
56861;DHT22;42744;51.094;3.490;2024-03-08T11:32:45;13.30;99.90
56861;DHT22;42744;51.094;3.490;2024-03-08T11:35:22;13.50;99.90
56861;DHT22;42744;51.094;3.490;2024-03-08T11:37:51;13.50;99.90
56861;DHT22;42744;51.094;3.490;2024-03-08T11:40:17;13.50;99.90
56861;DHT22;42744;51.094;3.490;2024-03-08T11:42:46;13.20;99.90
56861;DHT22;42744;51.094;3.490;2024-03-08T11:45:18;13.50;99.90
56861;DHT22;42744;51.094;3.490;2024-03-08T11:47:47;13.70;99.90
56861;DHT22;42744;51.094;3.490;2024-03-08T11:50:13;13.70;99.90
56861;DHT22;42744;51.094;3.490;2024-03-08T11:52:40;13.70;99.90
56861;DHT22;42744;51.094;3.490;2024-03-08T11:55:07;13.90;99.90
56861;DHT22;42744;51.094;3.490;2024-03-08T11:57:33;13.70;99.90
56861;DHT22;42744;51.094;3.490;2024-03-08T11:59:59;13.50;99.90
56861;DHT22;42744;51.094;3.490;2024-03-08T12:02:35;13.80;99.90
56861;DHT22;42744;51.094;3.490;2024-03-08T12:05:06;14.30;99.90
56861;DHT22;42744;51.094;3.490;2024-03-08T12:07:35;14.50;99.90
56861;DHT22;42744;51.094;3.490;2024-03-08T12:10:21;14.60;99.90
56861;DHT22;42744;51.094;3.490;2024-03-08T12:12:49;14.60;99.90
56861;DHT22;42744;51.094;3.490;2024-03-08T12:15:18;14.70;99.90
56861;DHT22;42744;51.094;3.490;2024-03-08T12:17:49;14.00;99.90
56861;DHT22;42744;51.094;3.490;2024-03-08T12:20:22;13.70;99.90
56861;DHT22;42744;51.094;3.490;2024-03-08T12:22:49;13.50;99.90
56861;DHT22;42744;51.094;3.490;2024-03-08T12:25:19;13.60;99.90
56861;DHT22;42744;51.094;3.490;2024-03-08T12:27:46;14.00;99.90
56861;DHT22;42744;51.094;3.490;2024-03-08T12:30:26;14.30;99.90
56861;DHT22;42744;51.094;3.490;2024-03-08T12:32:56;14.50;99.90
56861;DHT22;42744;51.094;3.490;2024-03-08T12:35:24;14.50;99.90
56861;DHT22;42744;51.094;3.490;2024-03-08T12:37:52;14.90;99.90
56861;DHT22;42744;51.094;3.490;2024-03-08T12:40:25;14.80;99.90
56861;DHT22;42744;51.094;3.490;2024-03-08T12:42:52;14.70;99.90
56861;DHT22;42744;51.094;3.490;2024-03-08T12:45:18;14.60;99.90
56861;DHT22;42744;51.094;3.490;2024-03-08T12:47:44;14.50;99.90
56861;DHT22;42744;51.094;3.490;2024-03-08T12:50:10;14.70;99.90
56861;DHT22;42744;51.094;3.490;2024-03-08T12:52:37;14.60;99.90
56861;DHT22;42744;51.094;3.490;2024-03-08T12:55:03;14.60;99.90
56861;DHT22;42744;51.094;3.490;2024-03-08T12:57:34;14.70;99.90
56861;DHT22;42744;51.094;3.490;2024-03-08T13:00:01;14.80;99.90
56861;DHT22;42744;51.094;3.490;2024-03-08T13:02:28;14.80;99.90
56861;DHT22;42744;51.094;3.490;2024-03-08T13:04:56;15.00;99.90
56861;DHT22;42744;51.094;3.490;2024-03-08T13:07:24;15.10;99.90
56861;DHT22;42744;51.094;3.490;2024-03-08T13:09:54;15.20;99.90
56861;DHT22;42744;51.094;3.490;2024-03-08T13:12:21;15.00;99.90
56861;DHT22;42744;51.094;3.490;2024-03-08T13:14:47;15.20;99.90
56861;DHT22;42744;51.094;3.490;2024-03-08T13:17:14;15.40;99.90
56861;DHT22;42744;51.094;3.490;2024-03-08T13:19:41;15.30;99.90
56861;DHT22;42744;51.094;3.490;2024-03-08T13:22:08;15.00;99.90
56861;DHT22;42744;51.094;3.490;2024-03-08T13:24:42;15.10;99.90
56861;DHT22;42744;51.094;3.490;2024-03-08T13:27:11;15.00;99.90
56861;DHT22;42744;51.094;3.490;2024-03-08T13:29:50;15.30;99.90
56861;DHT22;42744;51.094;3.490;2024-03-08T13:32:17;15.40;99.90
56861;DHT22;42744;51.094;3.490;2024-03-08T13:34:44;15.20;99.90
56861;DHT22;42744;51.094;3.490;2024-03-08T13:37:20;14.90;99.90
56861;DHT22;42744;51.094;3.490;2024-03-08T13:39:45;14.90;99.90
56861;DHT22;42744;51.094;3.490;2024-03-08T13:42:13;14.80;99.90
56861;DHT22;42744;51.094;3.490;2024-03-08T13:44:43;15.00;99.90
56861;DHT22;42744;51.094;3.490;2024-03-08T13:47:09;15.10;99.90
56861;DHT22;42744;51.094;3.490;2024-03-08T13:49:37;15.30;99.90
56861;DHT22;42744;51.094;3.490;2024-03-08T13:52:04;15.50;99.90
56861;DHT22;42744;51.094;3.490;2024-03-08T13:54:30;15.60;99.90
56861;DHT22;42744;51.094;3.490;2024-03-08T13:56:58;15.60;99.90
56861;DHT22;42744;51.094;3.490;2024-03-08T13:59:24;15.10;99.90
56861;DHT22;42744;51.094;3.490;2024-03-08T14:01:50;14.90;99.90
56861;DHT22;42744;51.094;3.490;2024-03-08T14:04:17;14.70;99.90
56861;DHT22;42744;51.094;3.490;2024-03-08T14:06:43;14.80;99.90
56861;DHT22;42744;51.094;3.490;2024-03-08T14:09:13;14.60;99.90
56861;DHT22;42744;51.094;3.490;2024-03-08T14:11:43;14.40;99.90
56861;DHT22;42744;51.094;3.490;2024-03-08T14:14:12;14.40;99.90
56861;DHT22;42744;51.094;3.490;2024-03-08T14:16:41;14.50;99.90
56861;DHT22;42744;51.094;3.490;2024-03-08T14:19:07;14.60;99.90
56861;DHT22;42744;51.094;3.490;2024-03-08T14:21:35;14.80;99.90
56861;DHT22;42744;51.094;3.490;2024-03-08T14:24:02;14.80;99.90
56861;DHT22;42744;51.094;3.490;2024-03-08T14:26:30;14.70;99.90
56861;DHT22;42744;51.094;3.490;2024-03-08T14:28:56;14.80;99.90
56861;DHT22;42744;51.094;3.490;2024-03-08T14:31:22;15.00;99.90
56861;DHT22;42744;51.094;3.490;2024-03-08T14:33:52;15.10;99.90
56861;DHT22;42744;51.094;3.490;2024-03-08T14:36:19;14.80;99.90
56861;DHT22;42744;51.094;3.490;2024-03-08T14:38:48;14.60;99.90
56861;DHT22;42744;51.094;3.490;2024-03-08T14:41:14;14.30;99.90
56861;DHT22;42744;51.094;3.490;2024-03-08T14:43:44;14.40;99.90
56861;DHT22;42744;51.094;3.490;2024-03-08T14:46:11;14.50;99.90
56861;DHT22;42744;51.094;3.490;2024-03-08T14:49:03;14.60;99.90
56861;DHT22;42744;51.094;3.490;2024-03-08T14:51:29;14.50;99.90
56861;DHT22;42744;51.094;3.490;2024-03-08T14:53:55;14.30;99.90
56861;DHT22;42744;51.094;3.490;2024-03-08T14:56:21;14.30;99.90
56861;DHT22;42744;51.094;3.490;2024-03-08T14:58:52;14.30;99.90
56861;DHT22;42744;51.094;3.490;2024-03-08T15:01:19;14.00;99.90
56861;DHT22;42744;51.094;3.490;2024-03-08T15:03:50;13.80;99.90
56861;DHT22;42744;51.094;3.490;2024-03-08T15:06:16;13.80;99.90
56861;DHT22;42744;51.094;3.490;2024-03-08T15:08:46;13.80;99.90
56861;DHT22;42744;51.094;3.490;2024-03-08T15:11:12;13.90;99.90
56861;DHT22;42744;51.094;3.490;2024-03-08T15:13:38;13.90;99.90
56861;DHT22;42744;51.094;3.490;2024-03-08T15:16:08;13.90;99.90
56861;DHT22;42744;51.094;3.490;2024-03-08T15:18:35;13.70;99.90
56861;DHT22;42744;51.094;3.490;2024-03-08T15:21:06;13.60;99.90
56861;DHT22;42744;51.094;3.490;2024-03-08T15:23:36;13.60;99.90
56861;DHT22;42744;51.094;3.490;2024-03-08T15:26:03;13.60;99.90
56861;DHT22;42744;51.094;3.490;2024-03-08T15:28:35;13.50;99.90
56861;DHT22;42744;51.094;3.490;2024-03-08T15:31:06;13.30;99.90
56861;DHT22;42744;51.094;3.490;2024-03-08T15:33:38;13.10;99.90
56861;DHT22;42744;51.094;3.490;2024-03-08T15:36:20;13.10;99.90
56861;DHT22;42744;51.094;3.490;2024-03-08T15:38:47;13.00;99.90
56861;DHT22;42744;51.094;3.490;2024-03-08T15:41:13;12.90;99.90
56861;DHT22;42744;51.094;3.490;2024-03-08T15:43:40;12.80;99.90
56861;DHT22;42744;51.094;3.490;2024-03-08T15:46:07;12.80;99.90
56861;DHT22;42744;51.094;3.490;2024-03-08T15:48:34;12.60;99.90
56861;DHT22;42744;51.094;3.490;2024-03-08T15:51:04;12.60;99.90
56861;DHT22;42744;51.094;3.490;2024-03-08T15:53:36;12.50;99.90